Radium Springs, New Mexico
Current Conditions -  °F | °C
As of 8:55 PM on Friday 24 Oct 2014 (Local Time) from KLRU Reporting Station
Clear Clear  
Wind Chill: 63°   Ceiling: Unl
Heat Index: 63°   Visibility: 10mi
Dew Point: 49°   Wind: 3mph
Humidity: 60%   Direction: 230°SW
Pressure: 30.23"   Gusts: NA
Location:  32.5°N, 106.93°W
Report Text: KLRU 250255Z AUTO 23003KT 10SM CLR 17/09 A3023 RMK AO2 T01710093 PWINO
Loading
Personal Weather Stations






























Interactive Weather Map
Tropical Storm Tracking
New forecast layout! Learn more

10-Day Weather Forecast

Advertisements
Track Severe Weather on mobile